sensor_id;sensor_type;location;lat;lon;timestamp;P1;durP1;ratioP1;P2;durP2;ratioP2
27758;SDS011;15148;48.972;12.794;2023-09-30T00:01:44;22.60;;;11.50;;
27758;SDS011;15148;48.972;12.794;2023-09-30T00:06:45;19.38;;;11.82;;
27758;SDS011;15148;48.972;12.794;2023-09-30T00:11:47;19.33;;;11.32;;
27758;SDS011;15148;48.972;12.794;2023-09-30T00:16:50;21.42;;;11.80;;
27758;SDS011;15148;48.972;12.794;2023-09-30T00:21:52;21.90;;;12.52;;
27758;SDS011;15148;48.972;12.794;2023-09-30T00:26:54;21.23;;;12.18;;
27758;SDS011;15148;48.972;12.794;2023-09-30T00:31:57;26.30;;;12.30;;
27758;SDS011;15148;48.972;12.794;2023-09-30T00:36:59;21.58;;;12.40;;
27758;SDS011;15148;48.972;12.794;2023-09-30T00:42:01;25.27;;;13.18;;
27758;SDS011;15148;48.972;12.794;2023-09-30T00:47:06;20.92;;;12.00;;
27758;SDS011;15148;48.972;12.794;2023-09-30T00:52:10;23.80;;;13.02;;
27758;SDS011;15148;48.972;12.794;2023-09-30T00:57:13;27.00;;;13.63;;
27758;SDS011;15148;48.972;12.794;2023-09-30T01:02:16;22.48;;;12.30;;
27758;SDS011;15148;48.972;12.794;2023-09-30T01:07:19;24.17;;;13.43;;
27758;SDS011;15148;48.972;12.794;2023-09-30T01:12:23;25.27;;;12.70;;
27758;SDS011;15148;48.972;12.794;2023-09-30T01:17:25;25.95;;;12.75;;
27758;SDS011;15148;48.972;12.794;2023-09-30T01:22:27;24.65;;;13.10;;
27758;SDS011;15148;48.972;12.794;2023-09-30T01:27:31;22.73;;;12.50;;
27758;SDS011;15148;48.972;12.794;2023-09-30T01:32:33;24.20;;;12.27;;
27758;SDS011;15148;48.972;12.794;2023-09-30T01:37:35;22.58;;;11.60;;
27758;SDS011;15148;48.972;12.794;2023-09-30T01:42:37;22.52;;;12.52;;
27758;SDS011;15148;48.972;12.794;2023-09-30T01:47:40;23.85;;;11.73;;
27758;SDS011;15148;48.972;12.794;2023-09-30T01:52:41;24.35;;;13.13;;
27758;SDS011;15148;48.972;12.794;2023-09-30T01:57:44;26.27;;;13.13;;
27758;SDS011;15148;48.972;12.794;2023-09-30T02:02:46;23.83;;;12.35;;
27758;SDS011;15148;48.972;12.794;2023-09-30T02:07:48;19.45;;;11.05;;
27758;SDS011;15148;48.972;12.794;2023-09-30T02:12:51;25.13;;;12.55;;
27758;SDS011;15148;48.972;12.794;2023-09-30T02:17:53;23.65;;;12.50;;
27758;SDS011;15148;48.972;12.794;2023-09-30T02:22:55;25.60;;;13.40;;
27758;SDS011;15148;48.972;12.794;2023-09-30T02:27:59;22.58;;;12.32;;
27758;SDS011;15148;48.972;12.794;2023-09-30T02:33:02;23.92;;;13.27;;
27758;SDS011;15148;48.972;12.794;2023-09-30T02:38:05;21.80;;;11.93;;
27758;SDS011;15148;48.972;12.794;2023-09-30T02:43:09;21.30;;;11.55;;
27758;SDS011;15148;48.972;12.794;2023-09-30T02:48:11;27.42;;;12.30;;
27758;SDS011;15148;48.972;12.794;2023-09-30T02:53:13;27.50;;;12.38;;
27758;SDS011;15148;48.972;12.794;2023-09-30T02:58:15;25.50;;;12.13;;
27758;SDS011;15148;48.972;12.794;2023-09-30T03:03:17;22.52;;;11.88;;
27758;SDS011;15148;48.972;12.794;2023-09-30T03:08:19;23.92;;;12.07;;
27758;SDS011;15148;48.972;12.794;2023-09-30T03:13:21;26.77;;;13.30;;
27758;SDS011;15148;48.972;12.794;2023-09-30T03:18:23;26.20;;;12.55;;
27758;SDS011;15148;48.972;12.794;2023-09-30T03:23:30;24.05;;;11.73;;
27758;SDS011;15148;48.972;12.794;2023-09-30T03:28:32;22.17;;;12.07;;
27758;SDS011;15148;48.972;12.794;2023-09-30T03:33:34;20.83;;;11.43;;
27758;SDS011;15148;48.972;12.794;2023-09-30T03:38:36;23.95;;;12.02;;
27758;SDS011;15148;48.972;12.794;2023-09-30T03:43:38;21.65;;;11.75;;
27758;SDS011;15148;48.972;12.794;2023-09-30T03:48:42;24.98;;;11.80;;
27758;SDS011;15148;48.972;12.794;2023-09-30T03:53:46;24.90;;;13.32;;
27758;SDS011;15148;48.972;12.794;2023-09-30T03:58:49;25.75;;;12.10;;
27758;SDS011;15148;48.972;12.794;2023-09-30T04:03:51;27.02;;;12.75;;
27758;SDS011;15148;48.972;12.794;2023-09-30T04:08:56;22.85;;;12.52;;
27758;SDS011;15148;48.972;12.794;2023-09-30T04:14:00;26.67;;;12.32;;
27758;SDS011;15148;48.972;12.794;2023-09-30T04:19:02;24.42;;;11.98;;
27758;SDS011;15148;48.972;12.794;2023-09-30T04:24:04;23.25;;;12.30;;
27758;SDS011;15148;48.972;12.794;2023-09-30T04:29:06;27.00;;;12.63;;
27758;SDS011;15148;48.972;12.794;2023-09-30T04:34:12;23.20;;;12.60;;
27758;SDS011;15148;48.972;12.794;2023-09-30T04:39:14;26.10;;;12.55;;
27758;SDS011;15148;48.972;12.794;2023-09-30T04:44:17;22.77;;;11.43;;
27758;SDS011;15148;48.972;12.794;2023-09-30T04:49:19;27.38;;;12.65;;
27758;SDS011;15148;48.972;12.794;2023-09-30T04:54:22;25.50;;;12.18;;
27758;SDS011;15148;48.972;12.794;2023-09-30T04:59:24;27.00;;;11.80;;
27758;SDS011;15148;48.972;12.794;2023-09-30T05:04:26;27.35;;;12.57;;
27758;SDS011;15148;48.972;12.794;2023-09-30T05:09:28;24.33;;;11.80;;
27758;SDS011;15148;48.972;12.794;2023-09-30T05:14:31;23.58;;;11.93;;
27758;SDS011;15148;48.972;12.794;2023-09-30T05:19:32;24.13;;;11.43;;
27758;SDS011;15148;48.972;12.794;2023-09-30T05:24:34;20.67;;;10.52;;
27758;SDS011;15148;48.972;12.794;2023-09-30T05:29:36;21.90;;;11.35;;
27758;SDS011;15148;48.972;12.794;2023-09-30T05:34:38;21.17;;;10.45;;
27758;SDS011;15148;48.972;12.794;2023-09-30T05:39:40;19.20;;;10.30;;
27758;SDS011;15148;48.972;12.794;2023-09-30T05:44:42;19.70;;;9.65;;
27758;SDS011;15148;48.972;12.794;2023-09-30T05:49:44;22.13;;;10.73;;
27758;SDS011;15148;48.972;12.794;2023-09-30T05:54:46;22.35;;;10.38;;
27758;SDS011;15148;48.972;12.794;2023-09-30T05:59:50;20.80;;;10.85;;
27758;SDS011;15148;48.972;12.794;2023-09-30T06:04:52;22.00;;;10.70;;
27758;SDS011;15148;48.972;12.794;2023-09-30T06:09:55;21.70;;;9.80;;
27758;SDS011;15148;48.972;12.794;2023-09-30T06:14:56;22.23;;;9.52;;
27758;SDS011;15148;48.972;12.794;2023-09-30T06:20:00;19.30;;;9.23;;
27758;SDS011;15148;48.972;12.794;2023-09-30T06:25:09;20.10;;;10.27;;
27758;SDS011;15148;48.972;12.794;2023-09-30T06:30:11;20.00;;;10.20;;
27758;SDS011;15148;48.972;12.794;2023-09-30T06:35:14;16.77;;;8.35;;
27758;SDS011;15148;48.972;12.794;2023-09-30T06:40:16;21.27;;;9.82;;
27758;SDS011;15148;48.972;12.794;2023-09-30T06:45:18;20.88;;;9.85;;
27758;SDS011;15148;48.972;12.794;2023-09-30T06:50:20;20.40;;;9.90;;
27758;SDS011;15148;48.972;12.794;2023-09-30T06:55:23;21.35;;;9.50;;
27758;SDS011;15148;48.972;12.794;2023-09-30T07:00:26;18.45;;;8.75;;
27758;SDS011;15148;48.972;12.794;2023-09-30T07:05:28;18.73;;;8.73;;
27758;SDS011;15148;48.972;12.794;2023-09-30T07:10:30;18.10;;;8.85;;
27758;SDS011;15148;48.972;12.794;2023-09-30T07:15:32;21.55;;;9.52;;
27758;SDS011;15148;48.972;12.794;2023-09-30T07:20:34;20.88;;;9.43;;
27758;SDS011;15148;48.972;12.794;2023-09-30T07:25:36;17.88;;;8.30;;
27758;SDS011;15148;48.972;12.794;2023-09-30T07:30:38;19.42;;;9.02;;
27758;SDS011;15148;48.972;12.794;2023-09-30T07:35:41;16.23;;;8.95;;
27758;SDS011;15148;48.972;12.794;2023-09-30T07:40:43;18.67;;;8.98;;
27758;SDS011;15148;48.972;12.794;2023-09-30T07:45:45;21.08;;;10.40;;
27758;SDS011;15148;48.972;12.794;2023-09-30T07:50:48;16.38;;;8.65;;
27758;SDS011;15148;48.972;12.794;2023-09-30T07:55:50;18.27;;;10.48;;
27758;SDS011;15148;48.972;12.794;2023-09-30T08:00:53;19.25;;;10.57;;
27758;SDS011;15148;48.972;12.794;2023-09-30T08:05:55;19.73;;;11.05;;
27758;SDS011;15148;48.972;12.794;2023-09-30T08:10:57;19.98;;;13.30;;
27758;SDS011;15148;48.972;12.794;2023-09-30T08:15:59;21.58;;;12.63;;
27758;SDS011;15148;48.972;12.794;2023-09-30T08:21:01;19.95;;;12.40;;
27758;SDS011;15148;48.972;12.794;2023-09-30T08:26:04;19.55;;;12.65;;
27758;SDS011;15148;48.972;12.794;2023-09-30T08:31:07;16.77;;;11.77;;
27758;SDS011;15148;48.972;12.794;2023-09-30T08:36:10;17.20;;;9.85;;
27758;SDS011;15148;48.972;12.794;2023-09-30T08:41:24;21.08;;;12.40;;
27758;SDS011;15148;48.972;12.794;2023-09-30T08:46:34;17.50;;;10.55;;
27758;SDS011;15148;48.972;12.794;2023-09-30T08:51:36;15.38;;;9.82;;
27758;SDS011;15148;48.972;12.794;2023-09-30T08:56:41;16.13;;;9.65;;
27758;SDS011;15148;48.972;12.794;2023-09-30T09:01:48;20.20;;;10.73;;
27758;SDS011;15148;48.972;12.794;2023-09-30T09:06:50;17.00;;;10.27;;
27758;SDS011;15148;48.972;12.794;2023-09-30T09:11:58;18.58;;;10.43;;
27758;SDS011;15148;48.972;12.794;2023-09-30T09:17:00;17.75;;;10.07;;
27758;SDS011;15148;48.972;12.794;2023-09-30T09:22:02;19.75;;;9.60;;
27758;SDS011;15148;48.972;12.794;2023-09-30T09:27:11;16.13;;;9.07;;
27758;SDS011;15148;48.972;12.794;2023-09-30T09:32:14;14.65;;;9.40;;
27758;SDS011;15148;48.972;12.794;2023-09-30T09:37:21;14.65;;;8.05;;
27758;SDS011;15148;48.972;12.794;2023-09-30T09:42:30;12.70;;;8.52;;
27758;SDS011;15148;48.972;12.794;2023-09-30T09:47:38;12.52;;;8.02;;
27758;SDS011;15148;48.972;12.794;2023-09-30T09:52:41;11.68;;;7.10;;
27758;SDS011;15148;48.972;12.794;2023-09-30T09:57:46;11.95;;;7.40;;
27758;SDS011;15148;48.972;12.794;2023-09-30T10:02:50;12.73;;;6.72;;
27758;SDS011;15148;48.972;12.794;2023-09-30T10:08:03;13.35;;;7.22;;
27758;SDS011;15148;48.972;12.794;2023-09-30T10:13:09;11.40;;;6.60;;
27758;SDS011;15148;48.972;12.794;2023-09-30T10:18:31;12.15;;;6.55;;
27758;SDS011;15148;48.972;12.794;2023-09-30T10:24:30;10.77;;;6.32;;
27758;SDS011;15148;48.972;12.794;2023-09-30T10:29:39;10.00;;;5.40;;
27758;SDS011;15148;48.972;12.794;2023-09-30T10:34:49;9.32;;;5.43;;
27758;SDS011;15148;48.972;12.794;2023-09-30T10:39:54;11.10;;;5.38;;
27758;SDS011;15148;48.972;12.794;2023-09-30T10:44:58;6.60;;;3.90;;
27758;SDS011;15148;48.972;12.794;2023-09-30T10:49:59;6.97;;;4.00;;
27758;SDS011;15148;48.972;12.794;2023-09-30T10:55:02;7.40;;;4.35;;
27758;SDS011;15148;48.972;12.794;2023-09-30T11:00:12;6.25;;;3.67;;
27758;SDS011;15148;48.972;12.794;2023-09-30T11:05:17;6.20;;;3.83;;
27758;SDS011;15148;48.972;12.794;2023-09-30T11:10:49;6.47;;;3.42;;
27758;SDS011;15148;48.972;12.794;2023-09-30T11:15:59;5.70;;;3.13;;
27758;SDS011;15148;48.972;12.794;2023-09-30T11:21:04;7.80;;;3.25;;
27758;SDS011;15148;48.972;12.794;2023-09-30T11:26:06;3.72;;;2.17;;
27758;SDS011;15148;48.972;12.794;2023-09-30T11:31:09;5.80;;;3.22;;
27758;SDS011;15148;48.972;12.794;2023-09-30T11:36:13;4.10;;;2.10;;
27758;SDS011;15148;48.972;12.794;2023-09-30T11:41:16;2.53;;;1.90;;
27758;SDS011;15148;48.972;12.794;2023-09-30T11:46:21;3.25;;;1.83;;
27758;SDS011;15148;48.972;12.794;2023-09-30T11:51:23;2.38;;;1.77;;
27758;SDS011;15148;48.972;12.794;2023-09-30T11:56:25;1.67;;;1.42;;
27758;SDS011;15148;48.972;12.794;2023-09-30T12:01:30;1.40;;;1.10;;
27758;SDS011;15148;48.972;12.794;2023-09-30T12:06:33;2.60;;;1.17;;
27758;SDS011;15148;48.972;12.794;2023-09-30T12:11:35;1.60;;;1.50;;
27758;SDS011;15148;48.972;12.794;2023-09-30T12:16:38;1.40;;;1.23;;
27758;SDS011;15148;48.972;12.794;2023-09-30T12:21:40;2.17;;;1.05;;
27758;SDS011;15148;48.972;12.794;2023-09-30T12:26:43;0.80;;;0.80;;
27758;SDS011;15148;48.972;12.794;2023-09-30T12:31:50;1.10;;;1.00;;
27758;SDS011;15148;48.972;12.794;2023-09-30T12:36:55;2.28;;;1.00;;
27758;SDS011;15148;48.972;12.794;2023-09-30T12:42:01;2.53;;;1.00;;
27758;SDS011;15148;48.972;12.794;2023-09-30T12:47:11;0.80;;;0.80;;
27758;SDS011;15148;48.972;12.794;2023-09-30T12:52:13;0.70;;;0.70;;
27758;SDS011;15148;48.972;12.794;2023-09-30T12:57:16;1.15;;;0.80;;
27758;SDS011;15148;48.972;12.794;2023-09-30T13:02:19;0.70;;;0.70;;
27758;SDS011;15148;48.972;12.794;2023-09-30T13:07:23;0.73;;;0.73;;
27758;SDS011;15148;48.972;12.794;2023-09-30T13:12:29;0.60;;;0.60;;
27758;SDS011;15148;48.972;12.794;2023-09-30T13:17:34;2.45;;;1.00;;
27758;SDS011;15148;48.972;12.794;2023-09-30T13:22:38;0.70;;;0.70;;
27758;SDS011;15148;48.972;12.794;2023-09-30T13:27:40;0.70;;;0.70;;
27758;SDS011;15148;48.972;12.794;2023-09-30T13:32:42;3.17;;;0.80;;
27758;SDS011;15148;48.972;12.794;2023-09-30T13:37:44;1.75;;;0.90;;
27758;SDS011;15148;48.972;12.794;2023-09-30T13:42:45;1.13;;;0.65;;
27758;SDS011;15148;48.972;12.794;2023-09-30T13:47:51;4.35;;;3.95;;
27758;SDS011;15148;48.972;12.794;2023-09-30T13:52:55;0.73;;;0.73;;
27758;SDS011;15148;48.972;12.794;2023-09-30T13:57:57;1.10;;;0.98;;
27758;SDS011;15148;48.972;12.794;2023-09-30T14:03:01;0.90;;;0.90;;
27758;SDS011;15148;48.972;12.794;2023-09-30T14:08:04;2.50;;;1.50;;
27758;SDS011;15148;48.972;12.794;2023-09-30T14:13:08;1.52;;;1.42;;
27758;SDS011;15148;48.972;12.794;2023-09-30T14:18:11;1.75;;;1.60;;
27758;SDS011;15148;48.972;12.794;2023-09-30T14:23:13;4.20;;;3.22;;
27758;SDS011;15148;48.972;12.794;2023-09-30T14:28:15;3.30;;;1.73;;
27758;SDS011;15148;48.972;12.794;2023-09-30T14:33:17;3.08;;;1.80;;
27758;SDS011;15148;48.972;12.794;2023-09-30T14:38:20;2.75;;;2.10;;
27758;SDS011;15148;48.972;12.794;2023-09-30T14:43:22;2.78;;;2.10;;
27758;SDS011;15148;48.972;12.794;2023-09-30T14:48:27;3.05;;;2.20;;
27758;SDS011;15148;48.972;12.794;2023-09-30T14:53:29;4.75;;;2.42;;
27758;SDS011;15148;48.972;12.794;2023-09-30T14:58:32;3.63;;;2.50;;
27758;SDS011;15148;48.972;12.794;2023-09-30T15:03:34;4.75;;;2.67;;
27758;SDS011;15148;48.972;12.794;2023-09-30T15:08:38;4.15;;;2.55;;
27758;SDS011;15148;48.972;12.794;2023-09-30T15:13:41;4.63;;;2.70;;
27758;SDS011;15148;48.972;12.794;2023-09-30T15:18:45;6.15;;;2.83;;
27758;SDS011;15148;48.972;12.794;2023-09-30T15:23:48;4.82;;;2.88;;
27758;SDS011;15148;48.972;12.794;2023-09-30T15:28:50;3.95;;;2.60;;
27758;SDS011;15148;48.972;12.794;2023-09-30T15:33:53;5.30;;;2.50;;
27758;SDS011;15148;48.972;12.794;2023-09-30T15:38:55;6.20;;;3.08;;
27758;SDS011;15148;48.972;12.794;2023-09-30T15:44:00;5.55;;;3.00;;
27758;SDS011;15148;48.972;12.794;2023-09-30T15:49:03;11.48;;;4.53;;
27758;SDS011;15148;48.972;12.794;2023-09-30T15:54:05;9.18;;;3.90;;
27758;SDS011;15148;48.972;12.794;2023-09-30T15:59:07;4.50;;;2.72;;
27758;SDS011;15148;48.972;12.794;2023-09-30T16:04:10;5.50;;;3.17;;
27758;SDS011;15148;48.972;12.794;2023-09-30T16:09:13;5.63;;;3.35;;
27758;SDS011;15148;48.972;12.794;2023-09-30T16:14:15;5.13;;;3.17;;
27758;SDS011;15148;48.972;12.794;2023-09-30T16:19:18;5.57;;;3.53;;
27758;SDS011;15148;48.972;12.794;2023-09-30T16:24:19;5.03;;;2.85;;
27758;SDS011;15148;48.972;12.794;2023-09-30T16:29:21;4.93;;;3.47;;
27758;SDS011;15148;48.972;12.794;2023-09-30T16:34:24;6.28;;;3.35;;
27758;SDS011;15148;48.972;12.794;2023-09-30T16:39:26;6.20;;;4.13;;
27758;SDS011;15148;48.972;12.794;2023-09-30T16:44:28;7.03;;;4.05;;
27758;SDS011;15148;48.972;12.794;2023-09-30T16:49:31;5.05;;;3.40;;
27758;SDS011;15148;48.972;12.794;2023-09-30T16:54:33;7.32;;;4.18;;
27758;SDS011;15148;48.972;12.794;2023-09-30T16:59:35;5.97;;;3.00;;
27758;SDS011;15148;48.972;12.794;2023-09-30T17:04:41;4.43;;;3.00;;
27758;SDS011;15148;48.972;12.794;2023-09-30T17:09:46;4.63;;;3.05;;
27758;SDS011;15148;48.972;12.794;2023-09-30T17:14:48;6.95;;;3.33;;
27758;SDS011;15148;48.972;12.794;2023-09-30T17:19:50;5.88;;;3.40;;
27758;SDS011;15148;48.972;12.794;2023-09-30T17:24:52;3.50;;;2.95;;
27758;SDS011;15148;48.972;12.794;2023-09-30T17:29:53;6.70;;;3.58;;
27758;SDS011;15148;48.972;12.794;2023-09-30T17:34:55;5.03;;;3.45;;
27758;SDS011;15148;48.972;12.794;2023-09-30T17:39:57;6.30;;;3.65;;
27758;SDS011;15148;48.972;12.794;2023-09-30T17:44:59;6.28;;;4.05;;
27758;SDS011;15148;48.972;12.794;2023-09-30T17:50:01;5.35;;;3.28;;
27758;SDS011;15148;48.972;12.794;2023-09-30T17:55:06;6.47;;;3.80;;
27758;SDS011;15148;48.972;12.794;2023-09-30T18:00:11;7.75;;;4.22;;
27758;SDS011;15148;48.972;12.794;2023-09-30T18:05:14;6.05;;;3.60;;
27758;SDS011;15148;48.972;12.794;2023-09-30T18:10:16;5.85;;;3.90;;
27758;SDS011;15148;48.972;12.794;2023-09-30T18:15:22;5.22;;;3.67;;
27758;SDS011;15148;48.972;12.794;2023-09-30T18:20:24;6.55;;;3.35;;
27758;SDS011;15148;48.972;12.794;2023-09-30T18:25:25;7.10;;;3.90;;
27758;SDS011;15148;48.972;12.794;2023-09-30T18:30:29;5.90;;;3.72;;
27758;SDS011;15148;48.972;12.794;2023-09-30T18:35:31;5.80;;;3.60;;
27758;SDS011;15148;48.972;12.794;2023-09-30T18:40:33;6.63;;;3.92;;
27758;SDS011;15148;48.972;12.794;2023-09-30T18:45:37;8.05;;;4.28;;
27758;SDS011;15148;48.972;12.794;2023-09-30T18:50:41;8.88;;;4.63;;
27758;SDS011;15148;48.972;12.794;2023-09-30T18:55:45;9.07;;;4.93;;
27758;SDS011;15148;48.972;12.794;2023-09-30T19:00:50;5.43;;;3.75;;
27758;SDS011;15148;48.972;12.794;2023-09-30T19:05:53;5.88;;;3.80;;
27758;SDS011;15148;48.972;12.794;2023-09-30T19:11:00;6.45;;;3.88;;
27758;SDS011;15148;48.972;12.794;2023-09-30T19:16:03;7.32;;;3.60;;
27758;SDS011;15148;48.972;12.794;2023-09-30T19:21:07;4.82;;;3.60;;
27758;SDS011;15148;48.972;12.794;2023-09-30T19:26:10;9.88;;;4.00;;
27758;SDS011;15148;48.972;12.794;2023-09-30T19:31:17;6.43;;;3.28;;
27758;SDS011;15148;48.972;12.794;2023-09-30T19:36:19;5.72;;;3.80;;
27758;SDS011;15148;48.972;12.794;2023-09-30T19:41:21;5.82;;;3.60;;
27758;SDS011;15148;48.972;12.794;2023-09-30T19:46:23;6.18;;;4.07;;
27758;SDS011;15148;48.972;12.794;2023-09-30T19:51:25;5.93;;;3.88;;
27758;SDS011;15148;48.972;12.794;2023-09-30T19:56:27;6.50;;;3.40;;
27758;SDS011;15148;48.972;12.794;2023-09-30T20:01:30;6.43;;;3.63;;
27758;SDS011;15148;48.972;12.794;2023-09-30T20:06:32;6.07;;;3.50;;
27758;SDS011;15148;48.972;12.794;2023-09-30T20:11:35;6.47;;;4.28;;
27758;SDS011;15148;48.972;12.794;2023-09-30T20:16:37;4.78;;;3.97;;
27758;SDS011;15148;48.972;12.794;2023-09-30T20:21:42;6.95;;;3.33;;
27758;SDS011;15148;48.972;12.794;2023-09-30T20:26:44;8.50;;;3.63;;
27758;SDS011;15148;48.972;12.794;2023-09-30T20:31:47;5.88;;;3.72;;
27758;SDS011;15148;48.972;12.794;2023-09-30T20:36:49;8.88;;;3.63;;
27758;SDS011;15148;48.972;12.794;2023-09-30T20:41:55;5.70;;;3.30;;
27758;SDS011;15148;48.972;12.794;2023-09-30T20:46:57;7.43;;;3.63;;
27758;SDS011;15148;48.972;12.794;2023-09-30T20:51:59;6.95;;;3.47;;
27758;SDS011;15148;48.972;12.794;2023-09-30T20:57:02;8.75;;;3.55;;
27758;SDS011;15148;48.972;12.794;2023-09-30T21:02:03;5.60;;;3.58;;
27758;SDS011;15148;48.972;12.794;2023-09-30T21:07:06;8.43;;;4.60;;
27758;SDS011;15148;48.972;12.794;2023-09-30T21:12:08;7.68;;;3.83;;
27758;SDS011;15148;48.972;12.794;2023-09-30T21:17:10;6.25;;;3.17;;
27758;SDS011;15148;48.972;12.794;2023-09-30T21:22:12;5.00;;;3.47;;
27758;SDS011;15148;48.972;12.794;2023-09-30T21:27:14;5.43;;;3.33;;
27758;SDS011;15148;48.972;12.794;2023-09-30T21:32:16;6.15;;;3.42;;
27758;SDS011;15148;48.972;12.794;2023-09-30T21:37:18;5.93;;;3.42;;
27758;SDS011;15148;48.972;12.794;2023-09-30T21:42:20;6.55;;;3.15;;
27758;SDS011;15148;48.972;12.794;2023-09-30T21:47:22;5.55;;;3.63;;
27758;SDS011;15148;48.972;12.794;2023-09-30T21:52:24;5.32;;;3.53;;
27758;SDS011;15148;48.972;12.794;2023-09-30T21:57:27;5.57;;;3.47;;
27758;SDS011;15148;48.972;12.794;2023-09-30T22:02:29;5.10;;;2.88;;
27758;SDS011;15148;48.972;12.794;2023-09-30T22:07:31;5.35;;;3.58;;
27758;SDS011;15148;48.972;12.794;2023-09-30T22:12:36;6.10;;;3.00;;
27758;SDS011;15148;48.972;12.794;2023-09-30T22:17:38;4.72;;;3.25;;
27758;SDS011;15148;48.972;12.794;2023-09-30T22:22:41;5.68;;;3.33;;
27758;SDS011;15148;48.972;12.794;2023-09-30T22:27:43;5.30;;;3.30;;
27758;SDS011;15148;48.972;12.794;2023-09-30T22:32:45;9.45;;;3.42;;
27758;SDS011;15148;48.972;12.794;2023-09-30T22:37:48;4.97;;;3.13;;
27758;SDS011;15148;48.972;12.794;2023-09-30T22:42:50;4.97;;;2.90;;
27758;SDS011;15148;48.972;12.794;2023-09-30T22:47:52;5.07;;;2.95;;
27758;SDS011;15148;48.972;12.794;2023-09-30T22:52:54;6.32;;;3.47;;
27758;SDS011;15148;48.972;12.794;2023-09-30T22:57:56;5.40;;;3.45;;
27758;SDS011;15148;48.972;12.794;2023-09-30T23:02:58;6.82;;;3.28;;
27758;SDS011;15148;48.972;12.794;2023-09-30T23:08:01;9.10;;;3.67;;
27758;SDS011;15148;48.972;12.794;2023-09-30T23:13:03;9.45;;;3.92;;
27758;SDS011;15148;48.972;12.794;2023-09-30T23:18:05;5.88;;;3.72;;
27758;SDS011;15148;48.972;12.794;2023-09-30T23:23:07;6.38;;;3.90;;
27758;SDS011;15148;48.972;12.794;2023-09-30T23:28:09;6.60;;;3.55;;
27758;SDS011;15148;48.972;12.794;2023-09-30T23:33:12;6.10;;;3.78;;
27758;SDS011;15148;48.972;12.794;2023-09-30T23:38:14;5.95;;;3.75;;
27758;SDS011;15148;48.972;12.794;2023-09-30T23:43:16;3.92;;;3.10;;
27758;SDS011;15148;48.972;12.794;2023-09-30T23:48:19;6.15;;;3.13;;
27758;SDS011;15148;48.972;12.794;2023-09-30T23:53:22;5.85;;;3.70;;
27758;SDS011;15148;48.972;12.794;2023-09-30T23:58:25;7.88;;;3.50;;
